Latest Weather Observations for Mount Ginini

IDN60801

Issued at 10:32 pm EST Thursday 26 May 2016 (issued every 30 minutes, with the page automatically refreshed every 10 minutes)

About weather observations | Map of weather stations | Latest weather observations for NSW | Other Formats
Station Details ID: 070349 Name: MOUNT GININI AWS Lat: -35.53 Lon: 148.77 Height: 1760.0 m
Data from the previous 72 hours. | See also: Recent months at Mount Ginini
Date/Time
EST
Temp
°C
App
Temp
°C
Dew
Point
Rel
Hum
%
Delta-T
°C
Wind Press
QNH
hPa
Press
MSL
hPa
Rain
since 9 am
mm
Dir
 
Spd
km/h
Gust
km/h
Spd
kts
Gust
kts
26/10:00pm 0.4 -5.8 -0.2 96 0.2 W 22 41 12 22 - - 3.2
26/09:30pm 0.3 -5.5 -0.3 96 0.2 W 20 37 11 20 - - 3.2
26/09:00pm 0.2 -6.4 -0.4 96 0.3 WSW 24 44 13 24 - - 3.2
26/08:30pm 0.2 -6.4 -0.4 96 0.3 WSW 24 46 13 25 - - 3.2
26/08:03pm 0.1 -7.3 -0.5 96 0.2 WSW 28 50 15 27 - - 3.2
26/08:00pm 0.1 -6.5 -0.5 96 0.2 WSW 24 50 13 27 - - 3.2
26/07:30pm 0.3 -6.3 -0.3 96 0.2 WSW 24 46 13 25 - - 3.0
26/07:00pm 0.8 -5.3 0.2 96 0.2 WSW 22 46 12 25 - - 2.6
26/06:30pm 1.5 -4.5 1.1 97 0.2 WSW 22 43 12 23 - - 2.6
26/06:00pm 1.6 -4.0 1.2 97 0.2 WSW 20 48 11 26 - - 2.6
26/05:30pm 1.7 -4.3 1.3 97 0.2 WSW 22 44 12 24 - - 2.6
26/05:00pm 1.9 -4.4 1.5 97 0.2 WSW 24 56 13 30 - - 2.6
26/04:46pm 1.9 -5.2 1.5 97 0.2 WSW 28 59 15 32 - - 2.6
26/04:30pm 2.0 -4.3 1.6 97 0.2 WSW 24 46 13 25 - - 2.6
26/04:00pm 2.2 -3.1 1.8 97 0.2 WSW 19 44 10 24 - - 2.4
26/03:38pm 2.2 -4.8 1.8 97 0.2 WSW 28 54 15 29 - - 2.2
26/03:30pm 2.5 -3.7 2.1 97 0.2 W 24 52 13 28 - - 2.2
26/03:00pm 2.4 -3.5 2.0 97 0.2 W 22 54 12 29 - - 2.0
26/02:30pm 2.3 -3.2 1.9 97 0.2 W 20 41 11 22 - - 2.0
26/02:00pm 2.3 -3.2 1.9 97 0.2 W 20 43 11 23 - - 2.0
26/01:30pm 2.3 -3.6 1.9 97 0.2 W 22 50 12 27 - - 2.0
26/01:00pm 2.2 -3.7 1.8 97 0.2 W 22 44 12 24 - - 2.0
26/12:30pm 2.2 -3.3 1.8 97 0.2 WNW 20 37 11 20 - - 1.6
26/12:00pm 2.1 -3.8 1.7 97 0.2 WNW 22 44 12 24 - - 1.4
26/11:30am 1.8 -4.5 1.4 97 0.2 NW 24 44 13 24 - - 1.0
26/11:00am 1.8 -4.1 1.4 97 0.2 WNW 22 43 12 23 - - 0.6
26/10:30am 1.6 -4.8 1.2 97 0.2 NW 24 39 13 21 - - 0.4
26/10:00am 1.6 -4.4 1.2 97 0.2 NW 22 37 12 20 - - 0.2
26/09:30am 1.7 -3.3 1.3 97 0.2 WNW 17 30 9 16 - - 0.2
26/09:00am 1.7 -3.7 1.3 97 0.2 NW 19 37 10 20 - - 0.8
26/08:30am 1.6 -3.4 1.2 97 0.2 NW 17 28 9 15 - - 0.6
26/08:00am 1.6 -3.8 1.2 97 0.2 NW 19 35 10 19 - - 0.6
26/07:30am 1.6 -4.0 1.2 97 0.2 WNW 20 39 11 21 - - 0.6
26/07:00am 1.5 -4.9 1.1 97 0.2 NW 24 41 13 22 - - 0.6
26/06:30am 1.4 -5.4 1.0 97 0.2 NW 26 41 14 22 - - 0.6
26/06:00am 1.4 -5.0 1.0 97 0.2 WNW 24 41 13 22 - - 0.6
26/05:30am 1.4 -5.0 1.0 97 0.2 WNW 24 46 13 25 - - 0.6
26/05:00am 1.4 -5.4 1.0 97 0.2 WNW 26 43 14 23 - - 0.6
26/04:30am 1.4 -5.8 1.0 97 0.2 WNW 28 46 15 25 - - 0.6
26/04:20am 1.4 -6.1 1.0 97 0.2 WNW 30 48 16 26 - - 0.6
26/04:00am 1.4 -5.4 1.0 97 0.2 WNW 26 39 14 21 - - 0.6
26/03:30am 1.5 -5.3 1.1 97 0.2 WNW 26 41 14 22 - - 0.4
26/03:00am 1.5 -4.9 1.1 97 0.2 WNW 24 44 13 24 - - 0.4
26/02:30am 1.4 -5.8 1.0 97 0.2 WNW 28 48 15 26 - - 0.4
26/02:00am 1.5 -4.5 1.1 97 0.2 WNW 22 41 12 22 - - 0.4
26/01:30am 1.4 -4.0 1.0 97 0.2 WNW 19 41 10 22 - - 0.2
26/01:00am 1.3 -4.3 0.9 97 0.2 W 20 41 11 22 - - 0.0
26/12:30am 1.1 -5.0 0.7 97 0.2 WNW 22 46 12 25 - - 0.0
26/12:00am 1.3 -4.7 0.9 97 0.2 WNW 22 41 12 22 - - 0.0
 
Date/Time
EST
Temp
°C
App
Temp
°C
Dew
Point
Rel
Hum
%
Delta-T
°C
Wind Press
QNH
hPa
Press
MSL
hPa
Rain
since 9 am
mm
Dir
 
Spd
km/h
Gust
km/h
Spd
kts
Gust
kts
25/11:30pm 1.2 -4.3 0.8 97 0.2 W 19 33 10 18 - - 0.0
25/11:00pm 1.0 -4.5 0.6 97 0.2 W 19 39 10 21 - - 0.0
25/10:30pm 0.8 -4.7 0.4 97 0.2 WNW 19 32 10 17 - - 0.0
25/10:00pm 0.8 -4.4 0.4 97 0.2 WNW 17 33 9 18 - - 0.0
25/09:30pm 0.4 -4.8 0.0 97 0.2 W 17 35 9 19 - - 0.0
25/09:00pm 0.4 -4.8 0.0 97 0.2 W 17 28 9 15 - - 0.0
25/08:30pm 0.6 -5.0 0.0 96 0.2 W 19 32 10 17 - - 0.0
25/08:00pm 0.4 -5.2 -0.2 96 0.2 W 19 32 10 17 - - 0.0
25/07:30pm 0.3 -5.0 -0.3 96 0.2 W 17 28 9 15 - - 0.0
25/07:00pm 0.3 -5.3 -0.3 96 0.2 W 19 32 10 17 - - 0.0
25/06:30pm 0.6 -4.2 -0.1 95 0.3 WSW 15 28 8 15 - - 0.0
25/06:00pm 0.8 -4.8 0.1 95 0.3 WSW 19 32 10 17 - - 0.0
25/05:30pm 0.9 -4.3 0.0 94 0.4 WSW 17 30 9 16 - - 0.0
25/05:00pm 1.2 -3.6 0.3 94 0.4 WSW 15 28 8 15 - - 0.0
25/04:30pm 1.5 -3.6 0.5 93 0.4 WSW 17 28 9 15 - - 0.0
25/04:00pm 2.0 -3.2 -0.1 86 0.9 WSW 17 26 9 14 - - 0.0
25/03:30pm 2.6 -2.6 0.0 83 1.1 WSW 17 30 9 16 - - 0.0
25/03:00pm 3.0 -2.2 0.2 82 1.2 WSW 17 28 9 15 - - 0.0
25/02:30pm 3.6 -1.2 0.1 78 1.5 WSW 15 26 8 14 - - 0.0
25/02:00pm 4.1 -1.3 -1.1 69 2.1 WSW 17 30 9 16 - - 0.0
25/01:30pm 4.6 -0.1 -1.8 63 2.6 WSW 13 24 7 13 - - 0.0
25/01:00pm 5.6 0.8 -2.5 56 3.3 WSW 13 26 7 14 - - 0.0
25/12:30pm 5.1 -0.3 -4.7 49 3.7 WSW 15 24 8 13 - - 0.0
25/12:00pm 4.9 -0.6 -5.7 46 3.9 WSW 15 26 8 14 - - 0.0
25/11:30am 4.5 -0.7 -6.7 44 4.0 WSW 13 24 7 13 - - 0.0
25/11:00am 4.9 -1.2 -7.5 40 4.4 WSW 17 28 9 15 - - 0.0
25/10:30am 4.7 -0.8 -9.8 34 5.1 WSW 13 24 7 13 - - 0.0
25/10:00am 4.8 -1.1 -10.5 32 5.3 SW 15 24 8 13 - - 0.0
25/09:30am 4.8 -1.2 -11.3 30 5.5 SW 15 26 8 14 - - 0.0
25/09:00am 3.9 -2.4 -10.9 33 5.0 WSW 17 28 9 15 - - 0.0
25/08:30am 3.2 -3.7 -11.1 34 4.7 SW 20 39 11 21 - - 0.0
25/08:00am 1.5 -5.2 -8.6 47 3.4 SW 20 33 11 18 - - 0.0
25/07:30am 1.3 -5.8 -8.7 47 3.4 SW 22 35 12 19 - - 0.0
25/07:00am 0.3 -5.8 -7.4 56 2.6 SW 17 28 9 15 - - 0.0
25/06:30am 0.4 -6.1 -7.6 55 2.7 WSW 19 37 10 20 - - 0.0
25/06:00am 1.5 -5.1 -9.4 44 3.6 SW 19 35 10 19 - - 0.0
25/05:30am 2.8 -4.8 -10.4 37 4.4 SW 24 44 13 24 - - 0.0
25/05:00am 2.0 -4.8 -8.7 45 3.7 SW 20 35 11 19 - - 0.0
25/04:30am 0.4 -6.0 -6.4 60 2.4 WSW 19 33 10 18 - - 0.0
25/04:00am 0.9 -6.5 -6.9 56 2.7 SW 24 39 13 21 - - 0.0
25/03:30am 0.4 -6.4 -5.0 67 2.0 SW 22 39 12 21 - - 0.0
25/03:00am 0.4 -7.4 -3.7 74 1.6 SW 28 44 15 24 - - 0.0
25/02:38am 0.3 -7.8 -0.4 95 0.3 SW 32 52 17 28 - - 0.0
25/02:30am -0.5 -8.7 -1.1 96 0.2 SW 32 48 17 26 - - 0.0
25/02:20am -1.6 -9.2 -2.0 97 0.1 SW 28 46 15 25 - - 0.0
25/02:00am -1.3 -7.7 -1.7 97 0.1 WSW 22 33 12 18 - - 0.0
25/01:30am -1.2 -7.2 -1.6 97 0.1 SW 20 32 11 17 - - 0.0
25/01:00am -0.9 -6.3 -1.3 97 0.1 SW 17 28 9 15 - - 0.0
25/12:30am -0.7 -5.3 -1.1 97 0.1 SW 13 26 7 14 - - 0.0
25/12:00am -0.6 -6.3 -1.0 97 0.1 SW 19 33 10 18 - - 0.0
 
Date/Time
EST
Temp
°C
App
Temp
°C
Dew
Point
Rel
Hum
%
Delta-T
°C
Wind Press
QNH
hPa
Press
MSL
hPa
Rain
since 9 am
mm
Dir
 
Spd
km/h
Gust
km/h
Spd
kts
Gust
kts
24/11:30pm -0.5 -5.8 -0.9 97 0.1 SW 17 30 9 16 - - 0.0
24/11:00pm -0.4 -5.3 -0.8 97 0.1 WSW 15 32 8 17 - - 0.0
24/10:30pm -0.4 -6.1 -0.8 97 0.1 SW 19 35 10 19 - - 0.0
24/10:00pm -0.3 -5.6 -0.7 97 0.1 SW 17 32 9 17 - - 0.0
24/09:30pm -0.2 -6.1 -0.6 97 0.1 SW 20 35 11 19 - - 0.0
24/09:00pm -0.2 -5.5 -0.6 97 0.1 SW 17 30 9 16 - - 0.0
24/08:30pm -0.1 -5.8 -0.7 96 0.2 SW 19 32 10 17 - - 0.0
24/08:00pm 0.0 -5.3 -0.6 96 0.2 SW 17 35 9 19 - - 0.0
24/07:30pm 0.0 -5.7 -0.6 96 0.2 SW 19 32 10 17 - - 0.0
24/07:00pm 0.1 -5.6 -0.5 96 0.2 SW 19 37 10 20 - - 0.0
24/06:30pm 0.1 -5.8 -0.6 95 0.3 SW 20 39 11 21 - - 0.0
24/06:00pm 0.2 -5.5 -0.5 95 0.3 SW 19 33 10 18 - - 0.0
24/05:30pm 0.4 -5.5 -0.5 94 0.4 SW 20 39 11 21 - - 0.0
24/05:00pm 0.6 -5.2 -0.4 93 0.4 SW 20 35 11 19 - - 0.0
24/04:30pm 1.7 -3.7 -1.0 82 1.1 SW 17 33 9 18 - - 0.0
24/04:00pm 2.8 -3.6 -1.4 74 1.7 SW 22 39 12 21 - - 0.0
24/03:30pm 3.4 -2.4 -1.7 69 2.1 SW 19 43 10 23 - - 0.0
24/03:00pm 4.2 -2.6 -1.6 66 2.4 SW 24 44 13 24 - - 0.0
24/02:30pm 4.0 -2.8 -1.8 66 2.4 WSW 24 44 13 24 - - 0.0
24/02:00pm 4.4 -1.6 -1.2 67 2.3 WSW 20 44 11 24 - - 0.0
24/01:30pm 4.0 -2.8 -2.2 64 2.5 SW 24 43 13 23 - - 0.0
24/01:00pm 4.4 -1.5 -0.6 70 2.1 SW 20 48 11 26 - - 0.0
24/12:30pm 3.6 -2.9 -2.3 65 2.4 SW 22 46 12 25 - - 0.0
24/12:00pm 3.2 -2.7 -0.6 76 1.6 SW 20 37 11 20 - - 0.0
24/11:30am 2.6 -3.7 -0.8 78 1.4 SW 22 41 12 22 - - 0.0
24/11:00am 2.4 -3.6 0.8 89 0.7 SW 22 37 12 20 - - 0.0
24/10:30am 1.7 -3.4 0.8 94 0.4 SW 17 32 9 17 - - 0.0
24/10:00am 0.6 -5.2 -0.1 95 0.3 SW 20 39 11 21 - - 0.0
24/09:30am -0.2 -5.5 -0.8 96 0.2 SW 17 32 9 17 - - 0.0
24/09:00am -0.7 -6.7 -1.3 96 0.2 SW 20 37 11 20 - - 0.4
24/08:30am -0.9 -7.3 -1.5 96 0.2 SW 22 43 12 23 - - 0.4
24/08:00am -1.2 -7.6 -1.8 96 0.2 WSW 22 46 12 25 - - 0.4
24/07:30am -1.3 -7.2 -1.9 96 0.2 WSW 19 41 10 22 - - 0.4
24/07:00am -1.3 -7.7 -1.9 96 0.2 SW 22 44 12 24 - - 0.4
24/06:30am -1.2 -7.6 -1.8 96 0.2 SW 22 37 12 20 - - 0.4
24/06:00am -1.1 -7.9 -1.7 96 0.2 WSW 24 50 13 27 - - 0.4
24/05:30am -0.9 -6.3 -1.5 96 0.2 WSW 17 39 9 21 - - 0.4
24/05:00am -0.8 -6.8 -1.4 96 0.2 WSW 20 43 11 23 - - 0.4
24/04:30am -0.6 -6.6 -1.2 96 0.2 SW 20 48 11 26 - - 0.4
24/04:00am -0.5 -7.6 -1.1 96 0.2 SW 26 52 14 28 - - 0.4
24/03:30am -0.4 -8.6 -0.8 97 0.1 WSW 32 54 17 29 - - 0.4
24/03:03am -0.1 -7.5 -0.5 97 0.2 WSW 28 54 15 29 - - 0.4
24/03:00am -0.1 -7.1 -0.5 97 0.2 WSW 26 54 14 29 - - 0.4
24/02:30am 0.0 -7.4 -0.4 97 0.2 WSW 28 59 15 32 - - 0.4
24/02:00am 0.1 -7.3 -0.5 96 0.2 WSW 28 56 15 30 - - 0.4
24/01:30am 0.2 -7.9 -0.4 96 0.3 WSW 32 65 17 35 - - 0.4
24/01:00am 0.0 -8.1 -0.6 96 0.2 WSW 32 63 17 34 - - 0.4
24/12:30am 0.0 -8.1 -0.6 96 0.2 WSW 32 65 17 35 - - 0.4
24/12:00am -0.1 -8.3 -0.7 96 0.2 WSW 32 67 17 36 - - 0.4
 
Date/Time
EST
Temp
°C
App
Temp
°C
Dew
Point
Rel
Hum
%
Delta-T
°C
Wind Press
QNH
hPa
Press
MSL
hPa
Rain
since 9 am
mm
Dir
 
Spd
km/h
Gust
km/h
Spd
kts
Gust
kts
23/11:30pm -0.3 -8.5 -0.9 96 0.2 WSW 32 59 17 32 - - 0.4
23/11:00pm -0.4 -8.2 -1.0 96 0.2 WSW 30 54 16 29 - - 0.4

Other Formats:

Comma delimited format used in spreadsheet applications
http://www.bom.gov.au/fwo/IDN60801/IDN60801.95925.axf

JavaScript Object Notation format (JSON) in row-major order
http://www.bom.gov.au/fwo/IDN60801/IDN60801.95925.json